createdAt,value
2022-07-25T04:02:43.023Z,100738.00
2022-07-25T04:05:11.864Z,100725.00
2022-07-25T04:07:40.475Z,100737.00
2022-07-25T04:10:11.575Z,100728.00
2022-07-25T04:12:39.902Z,100727.00
2022-07-25T04:15:10.441Z,100724.00
2022-07-25T04:17:39.493Z,100721.00
2022-07-25T04:20:10.697Z,100721.00
2022-07-25T04:22:42.206Z,100715.00
2022-07-25T04:25:12.889Z,100719.00
2022-07-25T04:27:40.974Z,100717.00
2022-07-25T04:30:11.237Z,100722.00
2022-07-25T04:32:39.255Z,100709.00
2022-07-25T04:35:10.483Z,100717.00
2022-07-25T04:37:38.594Z,100713.00
2022-07-25T04:40:08.052Z,100716.00
2022-07-25T04:42:36.156Z,100701.00
2022-07-25T04:45:04.765Z,100704.00
2022-07-25T04:47:32.868Z,100698.00
2022-07-25T04:50:01.201Z,100698.00
2022-07-25T04:52:30.720Z,100693.00
2022-07-25T04:54:58.925Z,100682.00
2022-07-25T04:57:27.025Z,100689.00
2022-07-25T04:59:55.260Z,100682.00
2022-07-25T05:02:23.553Z,100676.00
2022-07-25T05:04:52.193Z,100656.00
2022-07-25T05:07:21.124Z,100665.00
2022-07-25T05:09:50.571Z,100675.00
2022-07-25T05:12:18.727Z,100658.00
2022-07-25T05:14:47.025Z,100645.00
2022-07-25T05:17:15.859Z,100656.00
2022-07-25T05:19:44.004Z,100660.00
2022-07-25T05:22:12.130Z,100660.00
2022-07-25T05:24:40.375Z,100657.00
2022-07-25T05:27:09.791Z,100640.00
2022-07-25T05:29:38.062Z,100647.00
2022-07-25T05:32:07.044Z,100631.00
2022-07-25T05:34:35.106Z,100646.00
2022-07-25T05:37:03.199Z,100638.00
2022-07-25T05:39:31.677Z,100638.00
2022-07-25T05:41:59.817Z,100628.00
2022-07-25T05:44:29.261Z,100633.00
2022-07-25T05:46:57.425Z,100637.00
2022-07-25T05:49:25.624Z,100638.00
2022-07-25T05:51:54.090Z,100636.00
2022-07-25T05:54:22.218Z,100635.00
2022-07-25T05:56:50.422Z,100629.00
2022-07-25T05:59:20.507Z,100623.00
2022-07-25T06:01:49.979Z,100625.00
2022-07-25T06:04:18.274Z,100633.00
2022-07-25T06:06:50.991Z,100627.00
2022-07-25T06:09:21.219Z,100630.00
2022-07-25T06:11:54.422Z,100626.00
2022-07-25T06:14:28.518Z,100606.00
2022-07-25T06:16:58.348Z,100614.00
2022-07-25T06:19:26.508Z,100615.00
2022-07-25T06:21:54.700Z,100618.00
2022-07-25T06:24:22.852Z,100615.00
2022-07-25T06:26:50.966Z,100604.00
2022-07-25T06:29:19.100Z,100611.00
2022-07-25T06:31:47.589Z,100601.00
2022-07-25T06:34:17.216Z,100602.00
2022-07-25T06:36:45.245Z,100594.00
2022-07-25T06:39:13.357Z,100587.00
2022-07-25T06:41:41.457Z,100592.00
2022-07-25T06:44:09.775Z,100589.00
2022-07-25T06:46:38.353Z,100582.00
2022-07-25T06:49:06.624Z,100579.00
2022-07-25T06:51:37.217Z,100586.00
2022-07-25T06:54:05.694Z,100574.00
2022-07-25T06:56:33.924Z,100579.00
2022-07-25T06:59:02.246Z,100569.00
2022-07-25T07:01:30.520Z,100571.00
2022-07-25T07:03:58.673Z,100572.00
2022-07-25T07:06:26.856Z,100563.00
2022-07-25T07:08:56.455Z,100571.00
2022-07-25T07:11:25.148Z,100557.00
2022-07-25T07:13:53.240Z,100555.00
2022-07-25T07:16:21.419Z,100555.00
2022-07-25T07:18:49.748Z,100549.00
2022-07-25T07:21:21.467Z,100540.00
2022-07-25T07:23:53.456Z,100540.00
2022-07-25T07:26:23.306Z,100538.00
2022-07-25T07:28:54.388Z,100539.00
2022-07-25T07:31:22.757Z,100541.00
2022-07-25T07:33:50.872Z,100542.00
2022-07-25T07:36:19.190Z,100517.00
2022-07-25T07:38:48.296Z,100535.00
2022-07-25T07:41:16.676Z,100532.00
2022-07-25T07:43:46.035Z,100521.00
2022-07-25T07:46:14.173Z,100533.00
2022-07-25T07:48:42.459Z,100529.00
2022-07-25T07:51:10.602Z,100535.00
2022-07-25T07:53:56.126Z,100529.00
2022-07-25T07:56:24.268Z,100531.00
2022-07-25T07:58:53.712Z,100520.00
2022-07-25T08:01:21.912Z,100531.00
2022-07-25T08:03:50.017Z,100528.00
2022-07-25T08:06:18.371Z,100523.00
2022-07-25T08:08:46.506Z,100523.00
2022-07-25T08:11:14.577Z,100523.00
2022-07-25T08:13:42.686Z,100499.00
2022-07-25T08:16:13.749Z,100519.00
2022-07-25T08:18:41.879Z,100503.00
2022-07-25T08:21:10.539Z,100507.00
2022-07-25T08:23:39.396Z,100497.00
2022-07-25T08:26:08.519Z,100501.00
2022-07-25T08:28:36.588Z,100507.00
2022-07-25T08:31:04.869Z,100501.00
2022-07-25T08:33:34.608Z,100496.00
2022-07-25T08:36:02.854Z,100496.00
2022-07-25T08:38:31.139Z,100498.00
2022-07-25T08:41:00.014Z,100501.00
2022-07-25T08:43:32.903Z,100503.00
2022-07-25T08:46:03.277Z,100491.00
2022-07-25T08:48:31.611Z,100497.00
2022-07-25T08:51:02.322Z,100490.00
2022-07-25T08:53:33.654Z,100486.00
2022-07-25T08:56:06.682Z,100482.00
2022-07-25T08:58:38.768Z,100476.00
2022-07-25T09:01:07.970Z,100471.00
2022-07-25T09:03:36.583Z,100460.00
2022-07-25T09:06:18.698Z,100484.00
2022-07-25T09:08:55.749Z,100475.00
2022-07-25T09:11:32.876Z,100476.00
2022-07-25T09:14:08.760Z,100472.00
2022-07-25T09:16:40.883Z,100468.00
2022-07-25T09:19:11.853Z,100467.00
2022-07-25T09:21:44.740Z,100466.00
2022-07-25T09:24:17.158Z,100448.00
2022-07-25T09:26:48.272Z,100447.00
2022-07-25T09:29:22.935Z,100456.00
2022-07-25T09:31:51.990Z,100454.00
2022-07-25T09:34:35.699Z,100450.00
2022-07-25T09:37:07.857Z,100446.00
2022-07-25T09:39:45.373Z,100440.00
2022-07-25T09:42:24.405Z,100429.00
2022-07-25T09:45:06.372Z,100430.00
2022-07-25T09:47:38.393Z,100420.00
2022-07-25T09:50:08.561Z,100419.00
2022-07-25T09:52:39.549Z,100416.00
2022-07-25T09:55:10.866Z,100405.00
2022-07-25T09:57:39.445Z,100407.00
2022-07-25T10:00:10.455Z,100400.00
2022-07-25T10:02:49.545Z,100396.00
2022-07-25T10:05:30.997Z,100390.00
2022-07-25T10:08:01.629Z,100367.00
2022-07-25T10:10:33.130Z,100385.00
2022-07-25T10:13:09.908Z,100386.00
2022-07-25T10:15:50.433Z,100379.00
2022-07-25T10:18:23.752Z,100369.00
2022-07-25T10:20:55.668Z,100349.00
2022-07-25T10:23:28.595Z,100365.00
2022-07-25T10:26:08.233Z,100360.00
2022-07-25T10:28:41.510Z,100358.00
2022-07-25T10:31:25.538Z,100331.00
2022-07-25T10:33:57.251Z,100340.00
2022-07-25T10:36:30.153Z,100346.00
2022-07-25T10:39:02.258Z,100345.00
2022-07-25T10:41:30.629Z,100346.00
2022-07-25T10:44:03.511Z,100342.00
2022-07-25T10:46:36.448Z,100308.00
2022-07-25T10:49:07.419Z,100334.00
2022-07-25T10:51:41.621Z,100332.00
2022-07-25T10:54:19.312Z,100323.00
2022-07-25T10:56:57.199Z,100332.00
2022-07-25T10:59:33.327Z,100305.00
2022-07-25T11:02:02.613Z,100309.00
2022-07-25T11:04:31.101Z,100304.00
2022-07-25T11:07:08.523Z,100313.00
2022-07-25T11:09:38.818Z,100294.00
2022-07-25T11:12:08.108Z,100294.00
2022-07-25T11:14:41.284Z,100303.00
2022-07-25T11:17:20.090Z,100310.00
2022-07-25T11:19:57.216Z,100308.00
2022-07-25T11:22:25.678Z,100297.00
2022-07-25T11:24:56.826Z,100307.00
2022-07-25T11:27:27.638Z,100293.00
2022-07-25T11:30:07.533Z,100276.00
2022-07-25T11:32:41.452Z,100290.00
2022-07-25T11:35:12.993Z,100276.00
2022-07-25T11:37:43.908Z,100278.00
2022-07-25T11:40:16.334Z,100272.00
2022-07-25T11:42:47.476Z,100267.00
2022-07-25T11:45:20.595Z,100275.00
2022-07-25T11:48:02.554Z,100267.00
2022-07-25T11:50:32.317Z,100278.00
2022-07-25T11:53:02.214Z,100266.00
2022-07-25T11:55:36.362Z,100256.00
2022-07-25T11:58:06.318Z,100266.00
2022-07-25T12:00:41.650Z,100263.00
2022-07-25T12:03:18.706Z,100258.00
2022-07-25T12:05:48.676Z,100252.00
2022-07-25T12:08:18.678Z,100261.00
2022-07-25T12:10:51.255Z,100257.00
2022-07-25T12:13:25.472Z,100248.00
2022-07-25T12:15:54.385Z,100232.00
2022-07-25T12:18:22.646Z,100235.00
2022-07-25T12:20:50.946Z,100212.00
2022-07-25T12:23:21.593Z,100230.00
2022-07-25T12:25:51.539Z,100208.00
2022-07-25T12:28:19.599Z,100224.00
2022-07-25T12:30:56.013Z,100208.00
2022-07-25T12:33:25.019Z,100206.00
2022-07-25T12:35:53.201Z,100217.00
2022-07-25T12:38:21.233Z,100200.00
2022-07-25T12:40:50.615Z,100202.00
2022-07-25T12:43:18.778Z,100199.00
2022-07-25T12:45:46.937Z,100190.00
2022-07-25T12:48:15.856Z,100191.00
2022-07-25T12:50:44.290Z,100175.00
2022-07-25T12:53:13.324Z,100170.00
2022-07-25T12:55:42.255Z,100186.00
2022-07-25T12:58:12.894Z,100177.00
2022-07-25T13:00:41.087Z,100171.00
2022-07-25T13:03:09.230Z,100179.00
2022-07-25T13:05:37.451Z,100187.00
2022-07-25T13:08:06.144Z,100172.00
2022-07-25T13:10:34.630Z,100173.00
2022-07-25T13:13:02.715Z,100166.00
2022-07-25T13:15:32.364Z,100170.00
2022-07-25T13:18:00.504Z,100160.00
2022-07-25T13:20:29.609Z,100154.00
2022-07-25T13:22:57.810Z,100153.00
2022-07-25T13:25:25.917Z,100158.00
2022-07-25T13:27:54.009Z,100153.00
2022-07-25T13:30:22.187Z,100147.00
2022-07-25T13:32:51.613Z,100135.00
2022-07-25T13:35:21.102Z,100135.00
2022-07-25T13:37:50.633Z,100129.00
2022-07-25T13:40:18.683Z,100133.00
2022-07-25T13:42:46.735Z,100117.00
2022-07-25T13:45:14.812Z,100114.00
2022-07-25T13:47:42.998Z,100119.00
2022-07-25T13:50:12.718Z,100113.00
2022-07-25T13:52:40.829Z,100111.00
2022-07-25T13:55:10.428Z,100105.00
2022-07-25T13:57:38.536Z,100103.00
2022-07-25T14:00:08.888Z,100113.00
2022-07-25T14:02:37.012Z,100099.00
2022-07-25T14:05:05.971Z,100103.00
2022-07-25T14:07:35.641Z,100098.00
2022-07-25T14:10:04.756Z,100089.00
2022-07-25T14:12:32.778Z,100085.00
2022-07-25T14:15:00.836Z,100085.00
2022-07-25T14:17:30.539Z,100081.00
2022-07-25T14:19:58.920Z,100076.00
2022-07-25T14:22:27.173Z,100087.00
2022-07-25T14:24:56.875Z,100064.00
2022-07-25T14:27:25.312Z,100075.00
2022-07-25T14:29:53.836Z,100084.00
2022-07-25T14:32:22.056Z,100075.00
2022-07-25T14:34:50.966Z,100080.00
2022-07-25T14:37:21.229Z,100065.00
2022-07-25T14:39:49.316Z,100080.00
2022-07-25T14:42:18.753Z,100073.00
2022-07-25T14:44:46.807Z,100078.00
2022-07-25T14:47:15.190Z,100059.00
2022-07-25T14:49:43.564Z,100063.00
2022-07-25T14:52:14.274Z,100058.00
2022-07-25T14:54:42.788Z,100053.00
2022-07-25T14:57:11.571Z,100054.00
2022-07-25T14:59:40.986Z,100041.00
2022-07-25T15:02:10.999Z,100039.00
2022-07-25T15:04:39.145Z,100033.00
2022-07-25T15:07:07.909Z,100028.00
2022-07-25T15:09:36.101Z,100013.00
2022-07-25T15:12:04.550Z,100012.00
2022-07-25T15:14:32.666Z,100015.00
2022-07-25T15:17:02.369Z,100004.00
2022-07-25T15:19:30.887Z,100003.00
2022-07-25T15:21:59.137Z,100004.00
2022-07-25T15:24:29.183Z,100002.00
2022-07-25T15:26:58.121Z,99994.00
2022-07-25T15:29:27.796Z,99984.00
2022-07-25T15:31:55.995Z,99981.00
2022-07-25T15:34:25.762Z,99992.00
2022-07-25T15:36:56.457Z,99976.00
2022-07-25T15:39:24.626Z,99951.00
2022-07-25T15:41:52.717Z,99960.00
2022-07-25T15:44:20.852Z,99962.00
2022-07-25T15:46:49.016Z,99954.00
2022-07-25T15:49:17.277Z,99953.00
2022-07-25T15:51:46.718Z,99952.00
2022-07-25T15:54:15.434Z,99954.00
2022-07-25T15:56:43.641Z,99946.00
2022-07-25T15:59:11.853Z,99943.00
2022-07-25T16:01:40.055Z,99939.00
2022-07-25T16:04:08.432Z,99933.00
2022-07-25T16:06:37.796Z,99937.00
2022-07-25T16:09:07.710Z,99928.00
2022-07-25T16:11:38.213Z,99919.00
2022-07-25T16:14:06.396Z,99917.00
2022-07-25T16:16:34.505Z,99912.00
2022-07-25T16:19:03.354Z,99910.00
2022-07-25T16:21:31.696Z,99911.00
2022-07-25T16:23:59.846Z,99905.00
2022-07-25T16:26:29.512Z,99898.00
2022-07-25T16:28:58.713Z,99895.00
2022-07-25T16:31:27.615Z,99897.00
2022-07-25T16:33:55.929Z,99897.00
2022-07-25T16:36:25.301Z,99896.00
2022-07-25T16:38:53.395Z,99890.00
2022-07-25T16:41:21.497Z,99892.00
2022-07-25T16:43:50.903Z,99897.00
2022-07-25T16:46:19.563Z,99888.00
2022-07-25T16:48:48.292Z,99890.00
2022-07-25T16:51:16.410Z,99888.00
2022-07-25T16:53:44.490Z,99879.00
2022-07-25T16:56:12.702Z,99881.00
2022-07-25T16:58:40.911Z,99875.00
2022-07-25T17:01:10.635Z,99884.00
2022-07-25T17:03:38.766Z,99880.00
2022-07-25T17:06:07.878Z,99888.00
2022-07-25T17:08:36.704Z,99883.00
2022-07-25T17:11:06.193Z,99899.00
2022-07-25T17:13:34.279Z,99944.00
2022-07-25T17:16:02.536Z,99949.00
2022-07-25T17:18:32.521Z,99956.00
2022-07-25T17:21:00.641Z,99951.00
2022-07-25T17:23:29.109Z,99976.00
2022-07-25T17:25:57.168Z,100025.00
2022-07-25T17:28:25.462Z,100061.00
2022-07-25T17:30:53.530Z,100064.00
2022-07-25T17:33:21.605Z,100093.00
2022-07-25T17:35:52.219Z,100066.00
2022-07-25T17:38:25.528Z,100050.00
2022-07-25T17:40:54.485Z,100059.00
2022-07-25T17:43:22.555Z,100043.00
2022-07-25T17:45:50.668Z,100052.00
2022-07-25T17:48:18.950Z,100076.00
2022-07-25T17:50:47.026Z,100094.00
2022-07-25T17:53:18.112Z,100082.00
2022-07-25T17:55:46.652Z,100092.00
2022-07-25T17:58:15.386Z,100103.00
2022-07-25T18:00:43.844Z,100107.00
2022-07-25T18:03:11.939Z,100092.00
2022-07-25T18:05:40.376Z,100079.00
2022-07-25T18:08:08.558Z,100053.00
2022-07-25T18:10:38.023Z,100044.00
2022-07-25T18:13:06.227Z,100034.00
2022-07-25T18:15:34.364Z,100059.00
2022-07-25T18:18:02.438Z,100048.00
2022-07-25T18:20:30.626Z,100049.00
2022-07-25T18:22:59.231Z,100075.00
2022-07-25T18:25:27.450Z,100068.00
2022-07-25T18:27:57.008Z,100059.00
2022-07-25T18:30:29.147Z,100061.00
2022-07-25T18:32:57.532Z,100047.00
2022-07-25T18:35:25.693Z,100051.00
2022-07-25T18:37:53.799Z,100039.00
2022-07-25T18:40:23.208Z,100040.00
2022-07-25T18:42:51.351Z,100039.00
2022-07-25T18:45:20.881Z,100030.00
2022-07-25T18:47:49.922Z,100030.00
2022-07-25T18:50:19.777Z,100027.00
2022-07-25T18:52:47.983Z,100026.00
2022-07-25T18:55:16.036Z,100023.00
2022-07-25T18:57:44.154Z,100023.00
2022-07-25T19:00:12.776Z,100027.00
2022-07-25T19:02:42.270Z,100027.00
2022-07-25T19:05:10.918Z,100027.00
2022-07-25T19:07:40.817Z,100030.00
2022-07-25T19:10:09.969Z,100031.00
2022-07-25T19:12:38.677Z,100034.00
2022-07-25T19:15:08.475Z,100037.00
2022-07-25T19:17:37.985Z,100043.00
2022-07-25T19:20:10.019Z,100036.00
2022-07-25T19:22:38.149Z,100016.00
2022-07-25T19:25:08.446Z,100018.00
2022-07-25T19:27:36.819Z,100003.00
2022-07-25T19:30:07.008Z,100022.00
2022-07-25T19:32:35.401Z,100031.00
2022-07-25T19:35:04.477Z,100028.00
2022-07-25T19:37:34.316Z,100029.00
2022-07-25T19:40:03.065Z,100028.00
2022-07-25T19:42:31.241Z,100026.00
2022-07-25T19:44:59.430Z,100027.00
2022-07-25T19:47:27.609Z,100025.00
2022-07-25T19:49:55.677Z,100017.00
2022-07-25T19:52:23.817Z,100018.00
2022-07-25T19:54:54.490Z,100025.00
2022-07-25T19:57:22.574Z,100033.00
2022-07-25T19:59:50.702Z,100023.00
2022-07-25T20:02:18.909Z,100022.00
2022-07-25T20:04:46.985Z,100018.00
2022-07-25T20:07:15.112Z,100046.00
2022-07-25T20:09:43.234Z,100133.00
2022-07-25T20:12:12.677Z,100086.00
2022-07-25T20:14:40.716Z,100100.00
2022-07-25T20:17:08.902Z,100062.00
2022-07-25T20:19:38.190Z,100077.00
2022-07-25T20:22:07.337Z,100068.00
2022-07-25T20:24:35.907Z,100082.00
2022-07-25T20:27:04.200Z,100091.00
2022-07-25T20:29:33.969Z,100085.00
2022-07-25T20:32:03.513Z,100105.00
2022-07-25T20:34:31.622Z,100102.00
2022-07-25T20:36:59.669Z,100111.00
2022-07-25T20:39:28.689Z,100110.00
2022-07-25T20:41:56.925Z,100113.00
2022-07-25T20:44:25.032Z,100117.00
2022-07-25T20:46:54.469Z,100123.00
2022-07-25T20:49:22.626Z,100133.00
2022-07-25T20:51:54.404Z,100137.00
2022-07-25T20:54:22.877Z,100145.00
2022-07-25T20:56:51.270Z,100148.00
2022-07-25T20:59:19.387Z,100151.00
